Time;durP1;ratioP1;P1;durP2;ratioP2;P2;SDS_P1;SDS_P2;PMS_P1;PMS_P2;Temp;Humidity;BMP_temperature;BMP_pressure;BME280_temperature;BME280_humidity;BME280_pressure;Samples;Min_cycle;Max_cycle;Signal;HPM_P1;HPM_P2
2023/06/02 00:01:54;;;;;;;8.50;3.13;;;12.40;99.90;;;;;;5028448;28;20441;-69
2023/06/02 00:04:26;;;;;;;10.13;3.70;;;12.40;99.90;;;;;;5029798;28;20200;-69
2023/06/02 00:06:53;;;;;;;14.80;3.17;;;12.30;99.90;;;;;;5029966;28;20233;-69
2023/06/02 00:09:19;;;;;;;12.10;4.03;;;12.30;99.90;;;;;;5029680;28;20414;-70
2023/06/02 00:11:44;;;;;;;11.67;4.00;;;12.20;99.90;;;;;;5029651;28;20434;-69
2023/06/02 00:14:10;;;;;;;7.27;3.33;;;12.20;99.90;;;;;;5031968;28;20904;-68
2023/06/02 00:16:44;;;;;;;6.00;3.47;;;12.20;99.90;;;;;;5033019;28;20179;-68
2023/06/02 00:19:11;;;;;;;5.70;2.80;;;12.10;99.90;;;;;;5032720;28;20175;-69
2023/06/02 00:21:36;;;;;;;9.73;3.77;;;12.10;99.90;;;;;;5031126;28;20487;-69
2023/06/02 00:24:02;;;;;;;7.27;3.20;;;12.10;99.90;;;;;;5029373;28;20457;-69
2023/06/02 00:26:28;;;;;;;7.60;4.03;;;12.00;99.90;;;;;;5033260;28;20180;-69
2023/06/02 00:28:55;;;;;;;7.33;3.93;;;12.00;99.90;;;;;;5031769;28;20505;-68
2023/06/02 00:31:22;;;;;;;8.43;4.63;;;12.00;99.90;;;;;;5032951;28;20249;-68
2023/06/02 00:33:48;;;;;;;8.47;4.17;;;12.00;99.90;;;;;;5031273;28;20485;-68
2023/06/02 00:36:14;;;;;;;12.87;3.70;;;11.90;99.90;;;;;;5031952;28;20479;-69
2023/06/02 00:38:41;;;;;;;6.27;4.07;;;11.90;99.90;;;;;;5030041;28;20742;-71
2023/06/02 00:41:07;;;;;;;8.50;4.03;;;11.80;99.90;;;;;;5033253;28;20909;-69
2023/06/02 00:43:33;;;;;;;9.80;4.00;;;11.70;99.90;;;;;;5029150;28;20458;-69
2023/06/02 00:45:59;;;;;;;12.40;4.00;;;11.70;99.90;;;;;;5032760;28;20951;-69
2023/06/02 00:48:26;;;;;;;7.23;3.17;;;11.70;99.90;;;;;;5032845;28;20233;-68
2023/06/02 00:50:52;;;;;;;9.97;4.00;;;11.60;99.90;;;;;;5031543;28;20179;-68
2023/06/02 00:53:18;;;;;;;8.90;3.43;;;11.60;99.90;;;;;;5032569;28;21128;-68
2023/06/02 00:55:44;;;;;;;8.97;4.13;;;11.70;99.90;;;;;;5026258;28;20179;-69
2023/06/02 00:58:13;;;;;;;12.87;4.60;;;11.60;99.90;;;;;;5026046;28;20780;-69
2023/06/02 01:00:43;;;;;;;11.60;3.73;;;11.60;99.90;;;;;;5031977;28;20509;-69
2023/06/02 01:03:09;;;;;;;13.90;4.17;;;11.60;99.90;;;;;;5032606;28;20434;-69
2023/06/02 01:05:37;;;;;;;8.93;4.27;;;11.50;99.90;;;;;;5031297;28;20432;-69
2023/06/02 01:08:07;;;;;;;10.37;3.23;;;11.50;99.90;;;;;;5031994;28;20175;-68
2023/06/02 01:10:34;;;;;;;8.17;4.20;;;11.50;99.90;;;;;;5023964;28;20825;-67
2023/06/02 01:13:00;;;;;;;11.37;4.80;;;11.50;99.90;;;;;;5032180;28;20941;-68
2023/06/02 01:15:26;;;;;;;8.37;3.40;;;11.50;99.90;;;;;;5030872;28;20506;-68
2023/06/02 01:17:53;;;;;;;15.07;4.13;;;11.40;99.90;;;;;;5031230;28;20171;-68
2023/06/02 01:20:23;;;;;;;8.53;3.63;;;11.40;99.90;;;;;;5031239;28;20183;-69
2023/06/02 01:23:16;;;;;;;8.30;4.87;;;11.40;99.90;;;;;;5031405;28;20557;-69
2023/06/02 01:25:42;;;;;;;13.50;4.00;;;11.40;99.90;;;;;;5027941;28;20522;-70
2023/06/02 01:28:08;;;;;;;13.53;4.13;;;11.30;99.90;;;;;;5025644;28;20517;-68
2023/06/02 01:30:34;;;;;;;12.33;3.70;;;11.20;99.90;;;;;;5031671;28;20225;-69
2023/06/02 01:33:16;;;;;;;9.30;3.40;;;11.20;99.90;;;;;;5031289;28;20536;-68
2023/06/02 01:35:46;;;;;;;10.53;4.07;;;11.10;99.90;;;;;;5031268;28;20406;-68
2023/06/02 01:38:13;;;;;;;7.77;4.53;;;11.10;99.90;;;;;;5031280;28;20502;-69
2023/06/02 01:40:40;;;;;;;8.23;3.83;;;11.10;99.90;;;;;;5031561;28;20516;-68
2023/06/02 01:43:07;;;;;;;10.93;3.70;;;11.10;99.90;;;;;;5031650;28;20484;-69
2023/06/02 01:45:34;;;;;;;10.70;3.93;;;11.00;99.90;;;;;;5031508;28;20417;-68
2023/06/02 01:48:04;;;;;;;13.70;5.70;;;11.00;99.90;;;;;;5031317;28;20492;-69
2023/06/02 01:50:33;;;;;;;9.30;7.33;;;10.90;99.90;;;;;;5030993;28;20406;-69
2023/06/02 01:52:59;;;;;;;9.30;6.47;;;11.00;99.90;;;;;;5030427;28;20431;-69
2023/06/02 01:55:24;;;;;;;10.80;4.20;;;10.90;99.90;;;;;;5029167;28;20737;-68
2023/06/02 01:57:50;;;;;;;10.80;4.30;;;10.80;99.90;;;;;;5029827;28;20418;-68
2023/06/02 02:00:17;;;;;;;9.77;4.33;;;10.70;99.90;;;;;;5030815;28;20192;-69
2023/06/02 02:02:43;;;;;;;15.83;3.83;;;10.70;99.90;;;;;;5024893;28;20508;-69
2023/06/02 02:05:09;;;;;;;14.00;3.83;;;10.70;99.90;;;;;;5026208;28;20458;-69
2023/06/02 02:07:35;;;;;;;19.00;4.50;;;10.70;99.90;;;;;;5030562;28;20250;-69
2023/06/02 02:10:02;;;;;;;11.50;5.50;;;10.60;99.90;;;;;;5029163;28;20520;-68
2023/06/02 02:12:28;;;;;;;7.97;3.47;;;10.60;99.90;;;;;;5031269;28;20190;-69
2023/06/02 02:14:56;;;;;;;14.30;4.47;;;10.50;99.90;;;;;;5030953;28;20420;-69
2023/06/02 02:17:25;;;;;;;11.60;3.63;;;10.40;99.90;;;;;;5018007;28;20790;-68
2023/06/02 02:19:55;;;;;;;17.73;4.73;;;10.40;99.90;;;;;;5023737;28;20421;-69
2023/06/02 02:22:22;;;;;;;13.63;4.00;;;10.40;99.90;;;;;;5028330;28;20499;-69
2023/06/02 02:24:48;;;;;;;10.27;4.37;;;10.30;99.90;;;;;;5030541;28;20465;-68
2023/06/02 02:27:14;;;;;;;6.90;4.23;;;10.30;99.90;;;;;;5029255;28;20488;-68
2023/06/02 02:29:39;;;;;;;7.23;4.60;;;10.30;99.90;;;;;;5030385;28;20571;-69
2023/06/02 02:32:06;;;;;;;18.30;4.83;;;10.30;99.90;;;;;;5030653;28;20197;-69
2023/06/02 02:34:32;;;;;;;11.87;4.40;;;10.20;99.90;;;;;;5030309;28;20168;-69
2023/06/02 02:37:01;;;;;;;10.50;3.53;;;10.20;99.90;;;;;;5025865;28;20423;-68
2023/06/02 02:39:28;;;;;;;12.70;4.40;;;10.10;99.90;;;;;;5028791;28;20419;-69
2023/06/02 02:41:53;;;;;;;11.73;3.87;;;10.10;99.90;;;;;;5030323;28;20534;-69
2023/06/02 02:44:19;;;;;;;13.63;3.73;;;10.10;99.90;;;;;;5028671;28;20824;-69
2023/06/02 02:46:44;;;;;;;6.73;3.93;;;10.10;99.90;;;;;;5030329;28;20168;-69
2023/06/02 02:49:10;;;;;;;14.77;4.10;;;10.10;99.90;;;;;;5025363;28;20172;-68
2023/06/02 02:51:37;;;;;;;5.73;3.30;;;10.10;99.90;;;;;;5029733;28;20186;-68
2023/06/02 02:54:03;;;;;;;19.07;5.20;;;10.00;99.90;;;;;;5026520;28;20414;-69
2023/06/02 02:56:30;;;;;;;9.87;3.90;;;10.00;99.90;;;;;;5029340;28;20454;-69
2023/06/02 02:58:59;;;;;;;9.70;4.60;;;10.00;99.90;;;;;;5026549;28;20867;-69
2023/06/02 03:01:26;;;;;;;11.63;4.67;;;10.00;99.90;;;;;;5032316;28;20437;-69
2023/06/02 03:03:53;;;;;;;9.90;3.80;;;10.00;99.90;;;;;;5031629;28;20569;-69
2023/06/02 03:06:19;;;;;;;6.97;4.20;;;10.00;99.90;;;;;;5038366;28;20419;-68
2023/06/02 03:08:45;;;;;;;18.20;5.37;;;10.00;99.90;;;;;;5029989;28;20732;-69
2023/06/02 03:11:12;;;;;;;9.80;5.03;;;10.00;99.90;;;;;;5033422;28;20824;-68
2023/06/02 03:13:37;;;;;;;8.83;4.10;;;10.00;99.90;;;;;;5027457;28;20482;-69
2023/06/02 03:16:03;;;;;;;8.23;3.63;;;10.00;99.90;;;;;;5028609;28;20442;-67
2023/06/02 03:18:29;;;;;;;11.40;5.30;;;10.00;99.90;;;;;;5028418;28;20177;-69
2023/06/02 03:20:58;;;;;;;12.90;4.53;;;10.00;99.90;;;;;;5026275;28;20423;-68
2023/06/02 03:23:25;;;;;;;8.50;3.73;;;10.10;99.90;;;;;;5028685;28;20205;-69
2023/06/02 03:25:51;;;;;;;9.83;3.90;;;10.20;99.90;;;;;;5024333;28;20805;-68
2023/06/02 03:28:18;;;;;;;5.57;3.57;;;10.20;99.90;;;;;;5050958;23;20480;-67
2023/06/02 03:30:44;;;;;;;12.87;4.37;;;10.30;99.90;;;;;;5056848;28;20410;-68
2023/06/02 03:33:10;;;;;;;13.77;4.27;;;10.40;99.90;;;;;;5064639;28;20501;-68
2023/06/02 03:35:35;;;;;;;9.50;3.87;;;10.40;99.90;;;;;;5065346;28;20266;-68
2023/06/02 03:38:05;;;;;;;11.13;3.80;;;10.50;99.90;;;;;;5058668;28;20701;-67
2023/06/02 03:40:30;;;;;;;12.17;4.93;;;10.50;99.90;;;;;;5044915;28;20201;-66
2023/06/02 03:42:56;;;;;;;5.00;3.40;;;10.60;99.90;;;;;;5050035;28;20441;-67
2023/06/02 03:45:22;;;;;;;12.43;3.97;;;10.50;99.90;;;;;;5046237;28;20195;-67
2023/06/02 03:47:47;;;;;;;11.83;3.80;;;10.60;99.90;;;;;;5049328;28;20222;-69
2023/06/02 03:50:13;;;;;;;16.57;4.70;;;10.70;99.90;;;;;;5049824;28;20289;-67
2023/06/02 03:52:38;;;;;;;13.57;3.87;;;10.70;99.90;;;;;;5051832;28;20700;-67
2023/06/02 03:55:05;;;;;;;6.80;4.27;;;10.70;99.90;;;;;;5048503;28;20268;-68
2023/06/02 03:57:31;;;;;;;12.10;3.73;;;10.70;99.90;;;;;;5052058;28;20258;-66
2023/06/02 03:59:56;;;;;;;12.00;3.60;;;10.70;99.90;;;;;;5053959;28;20452;-69
2023/06/02 04:02:22;;;;;;;14.17;3.67;;;10.90;99.90;;;;;;5049698;28;20262;-67
2023/06/02 04:04:47;;;;;;;11.23;4.17;;;10.90;99.90;;;;;;5051840;28;20199;-67
2023/06/02 04:07:13;;;;;;;10.47;4.30;;;11.00;99.90;;;;;;5048214;28;20590;-68
2023/06/02 04:09:39;;;;;;;7.10;4.03;;;11.10;99.90;;;;;;5049288;28;20215;-68
2023/06/02 04:12:05;;;;;;;9.77;4.07;;;11.10;99.90;;;;;;5051948;28;20175;-68
2023/06/02 04:14:31;;;;;;;19.00;5.67;;;11.20;99.90;;;;;;5049617;28;20186;-66
2023/06/02 04:16:56;;;;;;;11.07;3.70;;;11.20;99.90;;;;;;5052293;28;20405;-67
2023/06/02 04:19:22;;;;;;;10.80;3.90;;;11.20;99.90;;;;;;5047496;28;20286;-68
2023/06/02 04:21:48;;;;;;;10.43;3.70;;;11.20;99.90;;;;;;5051377;28;20410;-67
2023/06/02 04:24:13;;;;;;;10.20;4.10;;;11.30;99.90;;;;;;5047650;28;20234;-67
2023/06/02 04:26:39;;;;;;;5.40;3.37;;;11.50;99.90;;;;;;5050532;28;20182;-67
2023/06/02 04:29:05;;;;;;;11.17;3.53;;;11.60;99.90;;;;;;5052543;28;20633;-69
2023/06/02 04:31:45;;;;;;;20.03;3.83;;;11.50;99.90;;;;;;5051570;28;20179;-68
2023/06/02 04:34:12;;;;;;;13.23;3.90;;;11.60;99.90;;;;;;5051792;28;20414;-67
2023/06/02 04:36:38;;;;;;;10.83;3.90;;;11.70;99.90;;;;;;5048407;28;20463;-68
2023/06/02 04:39:08;;;;;;;9.60;3.77;;;11.60;99.90;;;;;;5049844;28;20501;-66
2023/06/02 04:41:36;;;;;;;14.40;6.40;;;11.50;99.90;;;;;;5052176;28;20488;-68
2023/06/02 04:44:06;;;;;;;7.37;3.47;;;11.50;99.90;;;;;;5048894;28;20528;-66
2023/06/02 04:46:31;;;;;;;9.30;3.70;;;11.70;99.90;;;;;;5048544;28;20520;-68
2023/06/02 04:48:57;;;;;;;11.97;3.97;;;11.50;99.90;;;;;;5048033;28;20524;-69
2023/06/02 04:51:27;;;;;;;12.97;5.50;;;11.50;99.90;;;;;;5050660;28;20183;-67
2023/06/02 04:53:53;;;;;;;11.80;3.97;;;11.40;99.90;;;;;;5048457;28;20525;-67
2023/06/02 04:56:18;;;;;;;10.50;4.87;;;11.60;99.90;;;;;;5049643;28;20421;-67
2023/06/02 04:58:44;;;;;;;12.57;3.90;;;11.70;99.90;;;;;;5050184;28;20541;-67
2023/06/02 05:01:09;;;;;;;7.07;3.50;;;11.90;99.90;;;;;;5048631;28;20182;-68
2023/06/02 05:03:35;;;;;;;10.33;3.93;;;12.00;99.90;;;;;;5049464;28;20260;-66
2023/06/02 05:06:02;;;;;;;12.03;3.40;;;12.00;99.90;;;;;;5046550;28;20181;-67
2023/06/02 05:08:28;;;;;;;8.37;3.63;;;12.00;99.90;;;;;;5050452;28;20856;-67
2023/06/02 05:10:53;;;;;;;10.97;3.07;;;12.20;99.90;;;;;;5066921;28;20915;-67
2023/06/02 05:13:19;;;;;;;8.33;3.20;;;12.30;99.90;;;;;;5052204;28;20402;-67
2023/06/02 05:15:45;;;;;;;8.93;3.73;;;12.40;99.90;;;;;;5052023;28;20232;-65
2023/06/02 05:18:14;;;;;;;6.23;3.27;;;12.30;99.90;;;;;;5052026;28;20661;-66
2023/06/02 05:20:40;;;;;;;16.57;4.67;;;12.10;99.90;;;;;;5052003;28;20163;-67
2023/06/02 05:23:06;;;;;;;11.20;4.43;;;12.20;99.90;;;;;;5051641;28;20459;-67
2023/06/02 05:25:31;;;;;;;19.90;4.87;;;12.00;99.90;;;;;;5049822;28;20492;-67
2023/06/02 05:27:57;;;;;;;8.93;4.57;;;12.30;99.90;;;;;;5049201;28;20206;-66
2023/06/02 05:30:23;;;;;;;14.80;5.37;;;12.30;99.90;;;;;;5051745;28;20174;-67
2023/06/02 05:32:48;;;;;;;9.93;4.10;;;12.40;99.90;;;;;;5052062;28;20584;-67
2023/06/02 05:35:14;;;;;;;5.17;2.87;;;12.60;99.90;;;;;;5051637;28;20224;-65
2023/06/02 05:37:41;;;;;;;15.70;5.30;;;12.70;99.90;;;;;;5048779;28;20180;-66
2023/06/02 05:40:07;;;;;;;23.60;6.10;;;13.20;99.90;;;;;;5045239;28;20250;-65
2023/06/02 05:42:32;;;;;;;12.13;5.83;;;13.50;99.90;;;;;;5049917;28;20475;-67
2023/06/02 05:44:58;;;;;;;13.70;4.33;;;13.60;99.90;;;;;;5048402;28;20449;-67
2023/06/02 05:47:26;;;;;;;18.90;5.20;;;13.50;99.90;;;;;;5051011;28;20184;-66
2023/06/02 05:49:51;;;;;;;12.37;3.17;;;13.40;99.90;;;;;;5045966;28;20634;-66
2023/06/02 05:52:17;;;;;;;14.37;4.27;;;13.40;99.90;;;;;;5051830;28;20525;-68
2023/06/02 05:54:42;;;;;;;5.63;3.50;;;13.00;99.90;;;;;;5041829;28;20187;-66
2023/06/02 05:57:08;;;;;;;19.30;4.20;;;12.90;99.90;;;;;;5048730;28;20183;-66
2023/06/02 05:59:33;;;;;;;10.93;4.03;;;13.10;99.90;;;;;;5049236;28;20199;-67
2023/06/02 06:01:59;;;;;;;15.13;4.33;;;13.00;99.90;;;;;;5048401;28;20562;-68
2023/06/02 06:04:25;;;;;;;14.93;4.37;;;13.10;99.90;;;;;;5050586;28;20230;-66
2023/06/02 06:06:51;;;;;;;9.93;4.93;;;12.90;99.90;;;;;;5045235;28;20176;-66
2023/06/02 06:09:17;;;;;;;9.00;4.33;;;12.70;99.90;;;;;;5051308;28;20215;-68
2023/06/02 06:11:43;;;;;;;21.50;6.40;;;12.90;99.90;;;;;;5042004;28;20460;-66
2023/06/02 06:14:09;;;;;;;10.47;4.27;;;12.90;99.90;;;;;;5049720;28;20183;-70
2023/06/02 06:16:36;;;;;;;14.70;5.73;;;13.00;99.90;;;;;;5049804;28;20228;-70
2023/06/02 06:19:02;;;;;;;9.03;4.10;;;12.80;99.90;;;;;;5048291;28;20248;-71
2023/06/02 06:21:28;;;;;;;19.33;7.10;;;13.00;99.90;;;;;;5049386;28;20413;-66
2023/06/02 06:23:54;;;;;;;10.67;4.20;;;13.10;99.90;;;;;;5043908;28;20830;-69
2023/06/02 06:26:20;;;;;;;7.17;3.80;;;13.00;99.90;;;;;;5047732;28;20290;-67
2023/06/02 06:28:45;;;;;;;10.93;5.00;;;13.10;99.90;;;;;;5050429;28;20237;-66
2023/06/02 06:31:11;;;;;;;7.60;4.43;;;13.20;99.90;;;;;;5048820;28;20445;-66
2023/06/02 06:33:37;;;;;;;18.07;4.63;;;13.10;99.90;;;;;;5048113;28;20195;-66
2023/06/02 06:36:03;;;;;;;9.87;3.80;;;12.90;99.90;;;;;;5046302;28;20446;-67
2023/06/02 06:38:28;;;;;;;9.37;5.13;;;12.90;99.90;;;;;;5047627;28;20198;-68
2023/06/02 06:40:54;;;;;;;11.47;4.50;;;12.90;99.90;;;;;;5050024;28;20175;-66
2023/06/02 06:43:19;;;;;;;11.67;5.90;;;13.10;99.90;;;;;;5046395;28;20209;-67
2023/06/02 06:45:45;;;;;;;9.53;4.73;;;13.60;99.90;;;;;;5049169;28;20182;-69
2023/06/02 06:48:11;;;;;;;15.47;4.70;;;13.90;99.90;;;;;;5045339;28;20199;-68
2023/06/02 06:50:37;;;;;;;10.23;4.07;;;13.90;99.90;;;;;;5048784;28;20506;-69
2023/06/02 06:53:03;;;;;;;10.43;4.90;;;13.80;99.90;;;;;;5045758;28;20522;-66
2023/06/02 06:55:29;;;;;;;9.97;3.87;;;13.60;99.90;;;;;;5047648;28;20608;-68
2023/06/02 06:57:55;;;;;;;8.50;4.70;;;14.10;99.90;;;;;;5050119;28;20507;-70
2023/06/02 07:00:22;;;;;;;11.37;4.60;;;14.50;99.90;;;;;;5046437;28;20888;-68
2023/06/02 07:02:51;;;;;;;8.70;3.90;;;14.60;99.90;;;;;;5046203;28;20419;-67
2023/06/02 07:05:17;;;;;;;10.83;5.43;;;14.60;99.90;;;;;;5045914;28;20589;-67
2023/06/02 07:07:43;;;;;;;7.80;4.60;;;14.50;99.90;;;;;;5048902;28;20433;-67
2023/06/02 07:10:10;;;;;;;10.40;4.73;;;14.70;99.90;;;;;;5043570;28;20935;-68
2023/06/02 07:12:36;;;;;;;7.33;3.80;;;14.90;99.90;;;;;;5047412;28;20410;-68
2023/06/02 07:15:03;;;;;;;16.00;4.93;;;15.10;99.90;;;;;;5044426;28;20481;-70
2023/06/02 07:17:29;;;;;;;7.00;4.50;;;15.50;99.90;;;;;;5049725;28;20507;-68
2023/06/02 07:19:54;;;;;;;10.30;4.80;;;15.60;99.90;;;;;;5049846;28;20429;-68
2023/06/02 07:22:21;;;;;;;15.67;4.60;;;15.50;99.90;;;;;;5050230;28;20194;-68
2023/06/02 07:24:47;;;;;;;12.67;6.10;;;15.70;99.90;;;;;;5052180;28;20235;-70
2023/06/02 07:27:13;;;;;;;7.90;4.27;;;16.10;99.90;;;;;;5052237;28;20449;-67
2023/06/02 07:29:39;;;;;;;11.43;5.27;;;15.80;99.90;;;;;;5051449;28;20547;-67
2023/06/02 07:32:05;;;;;;;15.50;5.30;;;15.90;99.90;;;;;;5052775;28;20421;-68
2023/06/02 07:34:31;;;;;;;11.03;6.40;;;15.60;99.90;;;;;;5054343;28;20653;-67
2023/06/02 07:36:57;;;;;;;7.40;5.40;;;15.70;99.90;;;;;;5054411;28;20935;-68
2023/06/02 07:39:23;;;;;;;15.97;6.57;;;15.70;99.90;;;;;;5050989;28;20693;-68
2023/06/02 07:41:49;;;;;;;6.10;3.83;;;15.60;99.90;;;;;;5052567;28;20422;-67
2023/06/02 07:44:16;;;;;;;11.27;5.30;;;15.60;99.90;;;;;;5049127;28;20323;-68
2023/06/02 07:46:43;;;;;;;7.80;4.53;;;15.50;99.90;;;;;;5051565;28;20180;-66
2023/06/02 07:49:09;;;;;;;6.63;4.43;;;15.50;99.90;;;;;;5043146;28;20521;-68
2023/06/02 07:51:35;;;;;;;11.70;4.20;;;15.30;99.90;;;;;;5067714;28;20409;-68
2023/06/02 07:54:01;;;;;;;20.60;5.23;;;15.30;99.90;;;;;;5050256;28;20263;-72
2023/06/02 07:56:26;;;;;;;8.30;3.87;;;15.40;99.90;;;;;;5052390;28;20500;-70
2023/06/02 07:58:52;;;;;;;7.90;4.30;;;15.50;99.90;;;;;;5053544;28;20231;-67
2023/06/02 08:01:18;;;;;;;4.53;3.17;;;15.70;99.90;;;;;;5051752;28;20179;-67
2023/06/02 08:03:43;;;;;;;10.53;4.47;;;15.60;99.90;;;;;;5050633;28;20200;-67
2023/06/02 08:06:09;;;;;;;9.50;3.70;;;15.30;99.90;;;;;;5048595;28;20184;-68
2023/06/02 08:08:35;;;;;;;7.40;3.53;;;15.30;99.90;;;;;;5051968;28;20254;-70
2023/06/02 08:11:01;;;;;;;5.90;3.73;;;15.20;99.90;;;;;;5049459;28;20683;-69
2023/06/02 08:13:26;;;;;;;7.47;3.53;;;15.10;99.90;;;;;;5049725;28;20180;-66
2023/06/02 08:15:52;;;;;;;7.13;3.40;;;15.20;99.90;;;;;;5052007;28;20417;-66
2023/06/02 08:18:18;;;;;;;7.40;3.60;;;15.30;99.90;;;;;;5050381;28;20575;-66
2023/06/02 08:20:45;;;;;;;9.07;4.50;;;15.20;99.90;;;;;;5051306;28;20194;-67
2023/06/02 08:23:11;;;;;;;7.37;3.87;;;15.30;99.90;;;;;;5049381;28;20492;-69
2023/06/02 08:25:37;;;;;;;7.13;3.60;;;15.30;99.90;;;;;;5052504;28;20583;-66
2023/06/02 08:28:05;;;;;;;9.00;3.40;;;15.40;99.90;;;;;;5048554;28;20540;-66
2023/06/02 08:30:33;;;;;;;6.60;3.47;;;15.50;99.90;;;;;;5050838;28;20456;-67
2023/06/02 08:33:02;;;;;;;5.47;3.17;;;15.70;99.90;;;;;;5052869;28;20428;-67
2023/06/02 08:35:28;;;;;;;8.10;3.40;;;15.60;99.90;;;;;;5047251;28;20417;-67
2023/06/02 08:37:55;;;;;;;7.03;3.73;;;15.80;99.90;;;;;;5049704;28;20894;-66
2023/06/02 08:40:25;;;;;;;4.10;3.03;;;15.90;99.90;;;;;;5053245;28;20502;-67
2023/06/02 08:42:52;;;;;;;5.30;2.93;;;15.70;99.90;;;;;;5049186;28;20802;-67
2023/06/02 08:45:20;;;;;;;8.67;2.60;;;15.90;99.90;;;;;;5051382;28;20813;-67
2023/06/02 08:47:56;;;;;;;4.97;2.33;;;15.90;99.90;;;;;;5042086;28;20454;-70
2023/06/02 08:50:24;;;;;;;4.53;2.80;;;16.00;99.90;;;;;;5047406;28;20498;-69
2023/06/02 08:52:50;;;;;;;4.80;3.20;;;16.20;99.90;;;;;;5044506;28;20455;-70
2023/06/02 08:55:16;;;;;;;5.17;2.20;;;16.50;99.90;;;;;;5050753;28;20418;-69
2023/06/02 08:57:42;;;;;;;5.13;2.60;;;17.20;99.90;;;;;;5050030;28;20433;-68
2023/06/02 09:00:08;;;;;;;2.63;2.13;;;17.60;99.90;;;;;;5048300;28;20419;-68
2023/06/02 09:02:34;;;;;;;2.10;1.90;;;18.10;99.90;;;;;;5043075;28;20175;-66
2023/06/02 09:05:02;;;;;;;2.83;2.40;;;18.10;99.90;;;;;;5048095;28;20488;-67
2023/06/02 09:07:28;;;;;;;4.97;2.53;;;18.50;99.90;;;;;;5048426;28;20183;-67
2023/06/02 09:09:55;;;;;;;3.00;1.97;;;19.40;99.90;;;;;;5046503;28;20420;-68
2023/06/02 09:12:21;;;;;;;3.20;2.30;;;20.50;99.90;;;;;;5046264;28;20208;-70
2023/06/02 09:15:06;;;;;;;2.77;2.20;;;20.80;99.90;;;;;;5051245;28;20428;-69
2023/06/02 09:17:31;;;;;;;3.97;2.70;;;21.30;99.90;;;;;;5050041;28;20453;-68
2023/06/02 09:20:06;;;;;;;4.43;2.07;;;20.00;99.90;;;;;;5047461;28;20469;-68
2023/06/02 09:22:32;;;;;;;4.17;3.43;;;21.00;99.90;;;;;;5047737;28;20338;-68
2023/06/02 09:24:58;;;;;;;2.90;2.37;;;21.50;98.30;;;;;;5050042;28;20473;-68
2023/06/02 09:27:28;;;;;;;3.00;2.37;;;21.20;97.20;;;;;;5050097;28;20419;-68
2023/06/02 09:30:00;;;;;;;2.07;1.40;;;21.30;94.30;;;;;;5045037;28;20224;-67
2023/06/02 09:32:26;;;;;;;1.67;1.40;;;21.70;89.20;;;;;;5051720;28;20466;-70
2023/06/02 09:34:52;;;;;;;3.83;1.20;;;21.00;90.00;;;;;;5049636;28;20427;-67
2023/06/02 09:37:19;;;;;;;3.13;1.50;;;20.80;90.00;;;;;;5049691;28;20559;-67
2023/06/02 09:40:05;;;;;;;3.17;1.30;;;21.10;87.80;;;;;;5029567;28;20380;-67
2023/06/02 09:42:43;;;;;;;1.40;1.30;;;21.40;77.60;;;;;;5049885;28;20783;-68
2023/06/02 09:45:09;;;;;;;2.20;1.20;;;20.80;73.90;;;;;;5051116;28;20463;-66
2023/06/02 09:47:43;;;;;;;3.07;1.27;;;20.20;74.10;;;;;;5049037;28;20432;-66
2023/06/02 09:50:10;;;;;;;1.67;1.30;;;19.90;76.80;;;;;;5049530;28;20405;-65
2023/06/02 09:52:36;;;;;;;2.10;1.30;;;19.80;78.00;;;;;;5042965;28;20441;-67
2023/06/02 09:55:03;;;;;;;4.13;1.60;;;19.70;79.60;;;;;;5044319;28;20435;-67
2023/06/02 09:57:30;;;;;;;1.53;1.07;;;20.00;81.40;;;;;;5047631;28;20615;-67
2023/06/02 09:59:58;;;;;;;3.60;1.23;;;20.70;78.20;;;;;;5050049;28;20790;-68
2023/06/02 10:02:24;;;;;;;2.00;1.27;;;20.60;75.40;;;;;;5048943;28;20568;-68
2023/06/02 10:04:50;;;;;;;2.47;1.30;;;20.00;75.70;;;;;;5048327;28;20499;-66
2023/06/02 10:07:30;;;;;;;2.40;1.47;;;20.00;75.80;;;;;;5050989;28;20614;-67
2023/06/02 10:10:17;;;;;;;2.90;1.90;;;19.80;76.80;;;;;;5049367;28;20290;-66
2023/06/02 10:13:09;;;;;;;2.60;1.40;;;20.10;77.60;;;;;;5045862;28;20527;-69
2023/06/02 10:16:07;;;;;;;3.20;1.17;;;20.10;76.90;;;;;;5049993;28;20400;-69
2023/06/02 10:19:03;;;;;;;3.10;1.90;;;20.10;75.90;;;;;;5052188;28;20523;-64
2023/06/02 10:21:39;;;;;;;3.00;1.50;;;19.70;77.30;;;;;;5048821;28;20791;-66
2023/06/02 10:24:05;;;;;;;2.70;1.40;;;19.30;77.20;;;;;;5045531;28;20465;-68
2023/06/02 10:26:53;;;;;;;2.43;1.43;;;19.10;77.40;;;;;;5050601;28;20411;-67
2023/06/02 10:29:21;;;;;;;3.70;1.50;;;18.90;78.50;;;;;;5047864;28;20282;-69
2023/06/02 10:31:47;;;;;;;3.33;1.60;;;19.10;79.30;;;;;;5050652;28;20401;-68
2023/06/02 10:34:34;;;;;;;2.50;1.50;;;19.10;79.70;;;;;;5049595;28;20818;-68
2023/06/02 10:36:59;;;;;;;3.50;1.20;;;19.40;81.10;;;;;;5046171;28;20215;-69
2023/06/02 10:39:40;;;;;;;2.30;1.20;;;19.20;81.90;;;;;;5048419;28;20531;-66
2023/06/02 10:42:16;;;;;;;3.00;1.63;;;19.60;81.10;;;;;;5050527;28;20182;-69
2023/06/02 10:44:42;;;;;;;5.03;1.70;;;19.50;81.50;;;;;;5048347;28;20463;-67
2023/06/02 10:47:20;;;;;;;2.40;1.60;;;19.40;83.70;;;;;;5049904;28;20414;-67
2023/06/02 10:50:02;;;;;;;2.60;1.53;;;19.40;81.90;;;;;;5050301;28;20455;-70
2023/06/02 10:52:30;;;;;;;4.13;1.83;;;19.40;80.20;;;;;;5049235;28;20443;-67
2023/06/02 10:55:07;;;;;;;1.30;1.20;;;19.60;81.70;;;;;;5046532;28;20435;-66
2023/06/02 10:58:05;;;;;;;1.80;1.20;;;19.70;82.60;;;;;;5049541;28;20473;-67
2023/06/02 11:00:39;;;;;;;3.90;1.80;;;19.50;83.30;;;;;;5050149;28;20973;-67
2023/06/02 11:03:22;;;;;;;5.03;1.87;;;19.50;84.40;;;;;;5050191;28;20422;-68
2023/06/02 11:05:54;;;;;;;4.13;1.60;;;19.30;85.10;;;;;;5044584;28;20911;-67
2023/06/02 11:08:21;;;;;;;1.63;1.10;;;19.40;85.40;;;;;;5042508;28;20446;-67
2023/06/02 11:10:52;;;;;;;3.70;1.73;;;19.40;85.10;;;;;;5050024;28;20405;-68
2023/06/02 11:13:21;;;;;;;1.10;1.00;;;19.70;84.80;;;;;;5039177;28;20427;-66
2023/06/02 11:15:59;;;;;;;2.40;1.20;;;19.30;85.70;;;;;;5046190;28;20453;-67
2023/06/02 11:18:26;;;;;;;2.67;1.30;;;19.40;85.20;;;;;;5038434;28;20462;-67
2023/06/02 11:21:00;;;;;;;5.87;1.27;;;19.50;84.40;;;;;;5041086;28;21075;-67
2023/06/02 11:23:26;;;;;;;2.63;1.30;;;19.60;84.00;;;;;;5041322;28;20417;-67
2023/06/02 11:26:16;;;;;;;2.10;1.40;;;19.80;83.70;;;;;;5040768;28;20441;-66
2023/06/02 11:28:42;;;;;;;1.93;1.27;;;19.80;84.60;;;;;;5049291;28;20446;-67
2023/06/02 11:31:18;;;;;;;3.13;1.50;;;19.50;83.20;;;;;;5047116;28;20778;-66
2023/06/02 11:33:48;;;;;;;1.37;1.27;;;19.20;83.30;;;;;;5040137;28;20176;-67
2023/06/02 11:36:14;;;;;;;3.47;1.20;;;19.40;83.50;;;;;;5049869;28;20892;-69
2023/06/02 11:38:41;;;;;;;4.13;1.00;;;19.50;84.50;;;;;;5046894;28;20536;-67
2023/06/02 11:41:17;;;;;;;3.10;1.10;;;19.70;80.90;;;;;;5046390;28;20433;-67
2023/06/02 11:43:48;;;;;;;1.60;1.20;;;19.50;79.20;;;;;;5046447;28;20464;-67
2023/06/02 11:46:19;;;;;;;3.43;1.60;;;18.90;79.30;;;;;;5046088;28;20559;-69
2023/06/02 11:48:45;;;;;;;2.30;1.20;;;18.80;79.80;;;;;;5045673;28;20844;-69
2023/06/02 11:51:13;;;;;;;2.70;1.37;;;18.90;77.00;;;;;;5049733;28;20406;-69
2023/06/02 11:53:44;;;;;;;3.13;1.90;;;19.00;77.80;;;;;;5049773;28;20425;-68
2023/06/02 11:56:10;;;;;;;1.50;1.13;;;19.30;76.90;;;;;;5049916;28;20483;-68
2023/06/02 11:58:43;;;;;;;1.40;1.30;;;19.30;75.00;;;;;;5039774;28;20432;-68
2023/06/02 12:01:14;;;;;;;1.53;1.20;;;19.60;75.00;;;;;;5040214;28;20466;-67
2023/06/02 12:04:11;;;;;;;3.80;1.50;;;19.80;73.40;;;;;;5045737;28;20547;-67
2023/06/02 12:06:47;;;;;;;2.00;1.20;;;19.70;71.50;;;;;;5049197;28;20501;-67
2023/06/02 12:09:15;;;;;;;1.40;1.00;;;19.50;69.40;;;;;;5049198;28;20448;-69
2023/06/02 12:11:41;;;;;;;2.30;1.17;;;19.30;66.80;;;;;;5053316;28;20402;-67
2023/06/02 12:14:08;;;;;;;1.33;0.90;;;19.20;65.10;;;;;;5042028;28;20430;-68
2023/06/02 12:16:34;;;;;;;2.33;0.93;;;19.10;63.40;;;;;;5051891;28;20435;-67
2023/06/02 12:19:22;;;;;;;2.20;0.93;;;19.00;63.40;;;;;;5052836;28;20440;-68
2023/06/02 12:21:51;;;;;;;1.40;1.10;;;19.20;63.20;;;;;;5039131;28;20434;-68
2023/06/02 12:24:37;;;;;;;1.67;1.00;;;19.30;60.30;;;;;;5040050;28;20461;-67
2023/06/02 12:27:04;;;;;;;1.47;1.00;;;19.30;59.70;;;;;;5047847;28;20504;-69
2023/06/02 12:29:30;;;;;;;2.50;1.67;;;19.40;59.00;;;;;;5049256;28;20539;-67
2023/06/02 12:31:57;;;;;;;2.47;1.10;;;19.20;57.20;;;;;;5051130;28;20440;-68
2023/06/02 12:34:22;;;;;;;1.90;1.33;;;19.10;57.40;;;;;;5049474;28;20425;-68
2023/06/02 12:36:48;;;;;;;3.13;1.63;;;19.20;57.10;;;;;;5049637;28;20441;-69
2023/06/02 12:39:14;;;;;;;1.60;0.90;;;19.50;56.60;;;;;;5050962;28;20233;-69
2023/06/02 12:41:39;;;;;;;1.50;1.20;;;19.50;55.60;;;;;;5051493;28;20214;-68
2023/06/02 12:44:05;;;;;;;1.07;0.97;;;19.40;55.80;;;;;;5048483;28;20213;-68
2023/06/02 12:46:30;;;;;;;2.00;0.93;;;19.30;55.70;;;;;;5050386;28;20182;-67
2023/06/02 12:48:58;;;;;;;2.33;0.80;;;19.40;55.30;;;;;;5048232;28;20326;-69